Normal, IL

3:10 AM CST on February 08, 2016 (GMT -0600)
Den2 | | Change Station
CLOSE
Current Station
Personal Weather Station
Location: Normal, IL
Elevation: 843 ft
Nearby Weather Stations

Elev 843 ft 40.53 °N, 88.99 °W | Updated 23 seconds ago

Mostly Cloudy
Mostly Cloudy
32.4 °F
Feels Like 32 °F
N
2.9
Wind Variable Wind from West
Gusts 4.9 mph

Today
High -- | Low -- °F
--% Chance of Precip.
Yesterday
High -- | Low -- °F
Precip. -- in
Pressure 29.73 in
Visibility 10.0 miles
Clouds Mostly Cloudy 1200 ft
Overcast 2700 ft
Windchill 32 °F
Dew Point 26 °F
Humidity 76%
Rainfall 0.00 in
Snow Depth Not available.
6:58 AM 5:22 PM
Waning Crescent, 0% visible
METAR KBMI 080856Z AUTO 27011KT 10SM BKN012 OVC027 01/M01 A2970 RMK AO2 56018 T00051011 BKN V SCT SLP067
Pressure 29.73 in
Visibility 10.0 miles
Clouds Mostly Cloudy 1200 ft
Overcast 2700 ft
Windchill 32 °F
Dew Point 26 °F
Humidity 76%
Rainfall 0.00 in
Snow Depth Not available.
6:58 AM 5:22 PM
Waning Crescent, 0% visible
METAR KBMI 080856Z AUTO 27011KT 10SM BKN012 OVC027 01/M01 A2970 RMK AO2 56018 T00051011 BKN V SCT SLP067

10-Day Weather Forecast

Almanac

Astronomy

Feb. 08, 2016 Rise Set
Actual Time
Civil Twilight
Nautical Twilight
Astronomical Twilight
Moon
Length of Visible Light
Length of Day
Tomorrow will be .
, % of the Moon is Illuminated

Today's Extremes

State Highs State Lows

Community

WunderPhotos

Upload Photos

1,891,412 photos uploaded!

WunderBlog® & News

Nearby

Air Quality

  Air Quality AQ Index Pollutant
Not available.

Snow Depth

Station Depth Elevation

Earthquake Activity

City Distance Mag. Time & Date
Minimum magnitude displayed is 2.5.

Coastal Water Temperatures

Place Temperature

Stations

Nearby Weather Stations

Station Location Temp. Windchill Dew Point Humidity Wind Precip. Elev Updated Type
                   

Watches & Warnings

There are currently no watches in effect.